Terminal Aerodrome Forecast
Issued by NWS

Home | Current Version | Previous Version | Text Only | Print | Product List | Glossary On
Versions: 1 2 3 4 5 6 7 8 9 10 11 12 13 14 15 16 17 18 19 20 21
000
FTUS46 KLOX 112347
TAFSBA
TAF
KSBA 112347Z 1200/1224 25008KT 4SM FU BKN040 BKN250
      TEMPO 1200/1202 6SM FU SCT040 SCT250
     FM120200 VRB03KT 4SM FU BKN040 BKN250
     FM122000 24008KT 4SM FU BKN040 BKN250=

USA.gov is the U.S. government's official web portal to all federal, state and local government web resources and services.